createdAt,value
2023-04-20T00:00:08.710Z,0
2023-04-20T00:05:08.643Z,0
2023-04-20T00:10:08.749Z,0
2023-04-20T00:15:08.784Z,0
2023-04-20T00:20:08.874Z,0
2023-04-20T00:25:08.952Z,0
2023-04-20T00:30:07.990Z,0
2023-04-20T00:35:08.061Z,0
2023-04-20T00:40:08.092Z,0
2023-04-20T00:45:08.093Z,0
2023-04-20T00:50:08.126Z,0
2023-04-20T00:55:08.177Z,0
2023-04-20T01:00:08.280Z,0
2023-04-20T01:05:08.329Z,0
2023-04-20T01:10:08.481Z,0
2023-04-20T01:15:08.664Z,0
2023-04-20T01:20:08.749Z,0
2023-04-20T01:25:08.782Z,0
2023-04-20T01:30:08.995Z,0
2023-04-20T01:35:08.089Z,0
2023-04-20T01:40:08.125Z,0
2023-04-20T01:45:08.179Z,0
2023-04-20T01:50:08.240Z,0
2023-04-20T01:55:08.302Z,0
2023-04-20T02:00:08.333Z,0
2023-04-20T02:05:08.384Z,0
2023-04-20T02:10:08.440Z,0
2023-04-20T02:15:08.559Z,0
2023-04-20T02:20:09.790Z,0
2023-04-20T02:25:08.820Z,0
2023-04-20T02:30:08.926Z,0
2023-04-20T02:35:07.986Z,0
2023-04-20T02:40:08.099Z,0
2023-04-20T02:45:08.105Z,0
2023-04-20T02:50:08.197Z,0
2023-04-20T02:55:08.348Z,0
2023-04-20T03:00:08.379Z,0
2023-04-20T03:05:08.648Z,0
2023-04-20T03:10:08.710Z,0
2023-04-20T03:15:08.785Z,0
2023-04-20T03:20:08.860Z,0
2023-04-20T03:25:09.014Z,0
2023-04-20T03:30:08.104Z,0
2023-04-20T03:35:08.158Z,0
2023-04-20T03:40:08.220Z,0
2023-04-20T03:45:09.147Z,0
2023-04-20T03:50:08.233Z,0
2023-04-20T03:55:08.264Z,0
2023-04-20T04:00:08.312Z,3
2023-04-20T04:05:02.790Z,3
2023-04-20T04:10:02.997Z,12
2023-04-20T04:15:02.304Z,12
2023-04-20T04:20:02.471Z,44
2023-04-20T04:25:02.817Z,75
2023-04-20T04:30:03.064Z,75
2023-04-20T04:35:02.312Z,195
2023-04-20T04:40:04.202Z,195
2023-04-20T04:45:02.639Z,317
2023-04-20T04:50:03.091Z,317
2023-04-20T04:55:02.296Z,462
2023-04-20T05:00:02.512Z,462
2023-04-20T05:05:02.911Z,700
2023-04-20T05:10:03.155Z,700
2023-04-20T05:15:02.466Z,1000
2023-04-20T05:20:02.962Z,1000
2023-04-20T05:25:02.095Z,1000
2023-04-20T05:30:16.598Z,1000
2023-04-20T05:35:03.141Z,2000
2023-04-20T05:40:02.246Z,2000
2023-04-20T05:45:02.521Z,4000
2023-04-20T05:50:03.942Z,3000
2023-04-20T05:55:02.197Z,3000
2023-04-20T06:00:02.299Z,2000
2023-04-20T06:05:02.829Z,2000
2023-04-20T06:10:03.163Z,3000
2023-04-20T06:15:02.369Z,3000
2023-04-20T06:20:02.715Z,3000
2023-04-20T06:25:03.036Z,3000
2023-04-20T06:30:02.165Z,10000
2023-04-20T06:35:02.354Z,10000
2023-04-20T06:40:02.564Z,5000
2023-04-20T06:45:02.979Z,5000
2023-04-20T06:50:06.414Z,6000
2023-04-20T06:55:02.665Z,6000
2023-04-20T07:00:02.988Z,9000
2023-04-20T07:05:02.289Z,9000
2023-04-20T07:10:02.496Z,8000
2023-04-20T07:15:02.741Z,8000
2023-04-20T07:20:03.108Z,8000
2023-04-20T07:25:02.324Z,8000
2023-04-20T07:30:02.520Z,9000
2023-04-20T07:35:02.661Z,9000
2023-04-20T07:40:03.202Z,8000
2023-04-20T07:45:02.466Z,8000
2023-04-20T07:50:02.852Z,9000
2023-04-20T07:55:03.102Z,9000
2023-04-20T08:00:02.371Z,8000
2023-04-20T08:05:03.269Z,8000
2023-04-20T08:10:02.764Z,9000
2023-04-20T08:15:02.993Z,9000
2023-04-20T08:20:02.195Z,8000
2023-04-20T08:25:02.569Z,8000
2023-04-20T08:30:02.710Z,6000
2023-04-20T08:35:03.326Z,6000
2023-04-20T08:40:02.646Z,5000
2023-04-20T08:45:02.848Z,5000
2023-04-20T08:50:02.975Z,17000
2023-04-20T08:55:02.148Z,17000
2023-04-20T09:00:03.519Z,15000
2023-04-20T09:05:02.937Z,15000
2023-04-20T09:10:03.784Z,6000
2023-04-20T09:15:03.038Z,6000
2023-04-20T09:20:02.727Z,11000
2023-04-20T09:25:03.077Z,11000
2023-04-20T09:30:02.372Z,9000
2023-04-20T09:35:02.557Z,9000
2023-04-20T09:40:02.820Z,14000
2023-04-20T09:45:03.602Z,14000
2023-04-20T09:50:14.105Z,19000
2023-04-20T09:55:03.123Z,84000
2023-04-20T10:00:02.263Z,99000
2023-04-20T10:05:02.415Z,99000
2023-04-20T10:10:02.685Z,19000
2023-04-20T10:15:02.861Z,19000
2023-04-20T10:20:03.128Z,9000
2023-04-20T10:25:02.305Z,11000
2023-04-20T10:30:03.316Z,7000
2023-04-20T10:35:02.583Z,5000
2023-04-20T10:40:03.414Z,9000
2023-04-20T10:45:03.161Z,9000
2023-04-20T10:50:02.327Z,19000
2023-04-20T10:55:02.601Z,19000
2023-04-20T11:00:02.844Z,17000
2023-04-20T11:05:03.269Z,17000
2023-04-20T11:10:02.537Z,9000
2023-04-20T11:15:03.210Z,9000
2023-04-20T11:20:02.575Z,16000
2023-04-20T11:25:02.876Z,16000
2023-04-20T11:30:03.049Z,19000
2023-04-20T11:35:06.424Z,19000
2023-04-20T11:40:02.326Z,4000
2023-04-20T11:45:02.597Z,6000
2023-04-20T11:50:03.040Z,8000
2023-04-20T11:55:02.354Z,10000
2023-04-20T12:00:02.609Z,17000
2023-04-20T12:05:02.942Z,17000
2023-04-20T12:10:02.168Z,12000
2023-04-20T12:15:02.461Z,12000
2023-04-20T12:20:02.741Z,88000
2023-04-20T12:25:02.879Z,96000
2023-04-20T12:30:03.860Z,88000
2023-04-20T12:35:03.106Z,13000
2023-04-20T12:40:02.686Z,13000
2023-04-20T12:45:02.913Z,81000
2023-04-20T12:50:03.305Z,81000
2023-04-20T12:55:02.507Z,18000
2023-04-20T13:00:02.909Z,18000
2023-04-20T13:05:02.271Z,16000
2023-04-20T13:10:02.549Z,16000
2023-04-20T13:15:02.780Z,80000
2023-04-20T13:20:03.063Z,85000
2023-04-20T13:25:02.224Z,85000
2023-04-20T13:30:02.409Z,86000
2023-04-20T13:35:02.579Z,65000
2023-04-20T13:40:02.930Z,65000
2023-04-20T13:45:02.141Z,11000
2023-04-20T13:50:02.374Z,11000
2023-04-20T13:55:02.516Z,11000
2023-04-20T14:00:02.794Z,11000
2023-04-20T14:05:03.025Z,11000
2023-04-20T14:10:02.200Z,15000
2023-04-20T14:15:02.687Z,15000
2023-04-20T14:20:02.928Z,71000
2023-04-20T14:25:03.266Z,71000
2023-04-20T14:30:02.469Z,19000
2023-04-20T14:35:03.994Z,19000
2023-04-20T14:40:02.617Z,12000
2023-04-20T14:45:02.979Z,12000
2023-04-20T14:50:02.252Z,14000
2023-04-20T14:55:02.551Z,9000
2023-04-20T15:00:02.820Z,7000
2023-04-20T15:05:04.073Z,11000
2023-04-20T15:10:02.492Z,50000
2023-04-20T15:15:02.770Z,50000
2023-04-20T15:20:03.063Z,8000
2023-04-20T15:25:02.354Z,8000
2023-04-20T15:30:02.593Z,47000
2023-04-20T15:35:02.951Z,47000
2023-04-20T15:40:02.300Z,4000
2023-04-20T15:45:02.489Z,5000
2023-04-20T15:50:02.832Z,7000
2023-04-20T15:55:03.039Z,8000
2023-04-20T16:00:02.312Z,32000
2023-04-20T16:05:02.963Z,32000
2023-04-20T16:10:02.393Z,23000
2023-04-20T16:15:02.617Z,23000
2023-04-20T16:20:02.857Z,13000
2023-04-20T16:25:03.040Z,13000
2023-04-20T16:30:02.374Z,6000
2023-04-20T16:35:02.546Z,6000
2023-04-20T16:40:02.966Z,4000
2023-04-20T16:45:02.154Z,4000
2023-04-20T16:50:02.382Z,4000
2023-04-20T16:55:02.916Z,6000
2023-04-20T17:00:03.195Z,7000
2023-04-20T17:05:02.507Z,5000
2023-04-20T17:10:03.096Z,5000
2023-04-20T17:15:03.034Z,3000
2023-04-20T17:20:03.454Z,1000
2023-04-20T17:25:03.066Z,2000
2023-04-20T17:30:02.380Z,3000
2023-04-20T17:35:03.288Z,2000
2023-04-20T17:40:02.654Z,845
2023-04-20T17:45:03.240Z,845
2023-04-20T17:50:02.856Z,1000
2023-04-20T17:55:03.084Z,1000
2023-04-20T18:00:03.110Z,1000
2023-04-20T18:05:02.990Z,1000
2023-04-20T18:10:02.270Z,822
2023-04-20T18:15:02.547Z,886
2023-04-20T18:20:02.978Z,825
2023-04-20T18:25:02.266Z,581
2023-04-20T18:30:02.523Z,581
2023-04-20T18:35:02.772Z,468
2023-04-20T18:40:03.373Z,468
2023-04-20T18:45:02.521Z,61
2023-04-20T18:50:02.775Z,61
2023-04-20T18:55:03.037Z,22
2023-04-20T19:00:02.269Z,14
2023-04-20T19:05:02.612Z,6
2023-04-20T19:10:02.895Z,2
2023-04-20T19:15:03.185Z,1
2023-04-20T19:20:02.632Z,0
2023-04-20T19:25:02.953Z,0
2023-04-20T19:30:02.184Z,0
2023-04-20T19:35:02.513Z,0
2023-04-20T19:40:02.795Z,0
2023-04-20T19:45:03.553Z,0
2023-04-20T19:50:04.042Z,0
2023-04-20T19:55:02.582Z,0
2023-04-20T20:00:02.942Z,0
2023-04-20T20:05:03.165Z,0
2023-04-20T20:10:02.393Z,0
2023-04-20T20:15:02.656Z,0
2023-04-20T20:20:02.848Z,0
2023-04-20T20:25:03.409Z,0
2023-04-20T20:30:02.831Z,0
2023-04-20T20:35:02.962Z,0
2023-04-20T20:40:02.176Z,0
2023-04-20T20:45:02.591Z,0
2023-04-20T20:50:02.786Z,0
2023-04-20T20:55:03.001Z,0
2023-04-20T21:00:02.261Z,0
2023-04-20T21:05:15.380Z,0
2023-04-20T21:10:08.478Z,0
2023-04-20T21:15:08.545Z,0
2023-04-20T21:20:08.732Z,0
2023-04-20T21:25:08.790Z,0
2023-04-20T21:30:08.967Z,0
2023-04-20T21:35:08.095Z,0
2023-04-20T21:40:08.359Z,0
2023-04-20T21:45:08.390Z,0
2023-04-20T21:50:08.465Z,0
2023-04-20T21:55:08.552Z,0
2023-04-20T22:00:08.710Z,0
2023-04-20T22:05:08.800Z,0
2023-04-20T22:10:08.906Z,0
2023-04-20T22:15:08.933Z,0
2023-04-20T22:20:08.055Z,0
2023-04-20T22:25:08.174Z,0
2023-04-20T22:30:08.274Z,0
2023-04-20T22:35:08.350Z,0
2023-04-20T22:40:08.406Z,0
2023-04-20T22:45:08.446Z,0
2023-04-20T22:50:08.510Z,0
2023-04-20T22:55:08.581Z,0
2023-04-20T23:01:14.312Z,0
2023-04-20T23:05:08.440Z,0
2023-04-20T23:10:08.072Z,0
2023-04-20T23:15:08.103Z,0
2023-04-20T23:20:08.182Z,0
2023-04-20T23:25:08.248Z,0
2023-04-20T23:30:08.326Z,0
2023-04-20T23:35:08.377Z,0
2023-04-20T23:40:08.392Z,0
2023-04-20T23:45:08.424Z,0
2023-04-20T23:50:08.437Z,0
2023-04-20T23:55:08.496Z,0
